< Typhoon 195306 1953 Season Typhoon 195308 >
Typhoon 195307 (NINA)
General InformationTrack Information on Google Maps || Disaster Info.ResourceGoogle EarthGE AnimationAtom FeedGeoJSON
Detalied Best Track (Time Zone = UTC)
Year Month Day Hour Lat. Long. Pressure (hPa) Wind (kt) Class Image Chart
1953 8 7 06 7.9 154.6 1006 0 2 -- Chart
1953 8 7 12 8.0 153.9 1004 0 2 -- Chart
1953 8 7 18 8.2 153.2 1004 0 2 -- Chart
1953 8 8 00 8.4 152.4 1000 0 2 -- Chart
1953 8 8 06 8.7 151.6 995 0 9 -- Chart
1953 8 8 12 9.0 150.9 990 0 9 -- Chart
1953 8 8 18 9.3 150.2 988 0 9 -- Chart
1953 8 9 00 9.6 149.6 988 0 9 -- Chart
1953 8 9 06 10.0 148.9 988 0 9 -- Chart
1953 8 9 12 11.0 147.8 988 0 9 -- Chart
1953 8 9 18 12.0 146.9 988 0 9 -- Chart
1953 8 10 00 12.8 145.9 988 0 9 -- Chart
1953 8 10 06 13.6 144.7 985 0 9 -- Chart
1953 8 10 12 13.9 143.9 985 0 9 -- Chart
1953 8 10 18 14.2 143.2 980 0 9 -- Chart
1953 8 11 00 14.5 142.4 968 0 9 -- Chart
1953 8 11 06 15.0 142.0 968 0 9 -- Chart
1953 8 11 12 15.6 141.6 968 0 9 -- Chart
1953 8 11 18 16.2 141.2 960 0 9 -- Chart
1953 8 12 00 16.8 140.9 895 0 9 -- Chart
1953 8 12 06 17.5 139.8 895 0 9 -- Chart
1953 8 12 12 17.9 138.7 895 0 9 -- Chart
1953 8 12 18 18.2 137.9 890 0 9 -- Chart
1953 8 13 00 18.6 137.2 885 0 9 -- Chart
1953 8 13 06 19.2 136.2 885 0 9 -- Chart
1953 8 13 12 19.9 135.2 885 0 9 -- Chart
1953 8 13 18 20.3 134.0 885 0 9 -- Chart
1953 8 14 00 20.5 133.2 900 0 9 -- Chart
1953 8 14 06 20.8 132.4 910 0 9 -- Chart
1953 8 14 12 21.4 131.5 920 0 9 -- Chart
1953 8 14 18 21.8 130.5 930 0 9 -- Chart
1953 8 15 00 22.4 129.4 930 0 9 -- Chart
1953 8 15 06 23.2 128.7 930 0 9 -- Chart
1953 8 15 12 23.8 127.6 930 0 9 -- Chart
1953 8 15 18 24.5 126.0 930 0 9 -- Chart
1953 8 16 00 25.2 125.2 930 0 9 -- Chart
1953 8 16 06 26.5 123.6 930 0 9 -- Chart
1953 8 16 12 26.8 122.5 930 0 9 -- Chart
1953 8 16 18 28.0 122.0 930 0 9 -- Chart
1953 8 17 00 29.0 121.0 950 0 9 -- Chart
1953 8 17 06 29.2 119.6 960 0 9 -- Chart
1953 8 17 12 29.5 118.4 970 0 9 -- Chart
1953 8 17 18 30.3 117.6 980 0 9 -- Chart
1953 8 18 00 31.3 117.5 980 0 9 -- Chart
1953 8 18 06 32.8 117.3 985 0 9 -- Chart
1953 8 18 12 34.0 117.2 990 0 9 -- Chart
1953 8 18 18 36.5 118.0 994 0 9 -- Chart
1953 8 19 00 39.0 119.7 996 0 6 -- Chart
1953 8 19 06 40.8 122.0 996 0 6 -- Chart
1953 8 19 12 42.9 124.8 998 0 6 -- Chart
1953 8 19 18 43.9 128.9 998 0 6 -- Chart
1953 8 20 00 44.0 133.0 999 0 6 -- Chart
1953 8 20 06 43.6 137.0 998 0 6 -- Chart
1953 8 20 12 43.0 140.4 998 0 6 -- Chart
1953 8 20 18 42.6 142.9 997 0 6 -- Chart
1953 8 21 00 42.2 148.9 994 0 6 -- Chart
1953 8 21 06 42.0 153.9 996 0 6 -- Chart
1953 8 21 12 42.1 154.2 998 0 6 -- Chart
1953 8 21 18 42.4 158.2 994 0 6 -- Chart
1953 8 22 00 45.0 163.0 995 0 6 -- Chart
1953 8 22 06 47.0 165.2 995 0 6 -- Chart
1953 8 22 12 48.2 168.2 995 0 6 -- Chart
1953 8 22 18 51.0 171.1 995 0 6 -- Chart
1953 8 23 00 54.1 172.0 996 0 6 -- Chart
1953 8 23 06 57.0 174.0 1000 0 6 -- Chart
Japan Meteorological Agency Best Track Data | Correction Date : 1989-06-01
< Typhoon 195306 1953 Season Typhoon 195308 >

Help